createdAt,value
2019-06-08T00:02:52.317Z,90.30
2019-06-08T00:08:07.865Z,90.80
2019-06-08T00:13:51.638Z,90.50
2019-06-08T00:18:58.645Z,91.00
2019-06-08T00:24:16.268Z,90.50
2019-06-08T00:29:30.966Z,90.40
2019-06-08T00:35:16.666Z,90.60
2019-06-08T00:40:28.358Z,91.00
2019-06-08T00:46:17.827Z,91.20
2019-06-08T00:51:33.063Z,90.80
2019-06-08T00:56:41.905Z,91.10
2019-06-08T01:01:51.991Z,91.20
2019-06-08T01:07:01.810Z,91.30
2019-06-08T01:12:14.451Z,90.80
2019-06-08T01:17:21.125Z,90.90
2019-06-08T01:22:27.878Z,91.20
2019-06-08T01:27:34.885Z,91.70
2019-06-08T01:33:16.453Z,91.50
2019-06-08T01:38:22.929Z,91.40
2019-06-08T01:44:04.986Z,91.60
2019-06-08T01:49:14.979Z,91.20
2019-06-08T01:54:22.850Z,90.80
2019-06-08T01:59:29.698Z,91.20
2019-06-08T02:05:12.348Z,91.10
2019-06-08T02:10:20.215Z,91.50
2019-06-08T02:16:09.698Z,91.80
2019-06-08T02:21:52.363Z,92.90
2019-06-08T02:27:04.683Z,93.40
2019-06-08T02:32:52.236Z,93.10
2019-06-08T02:38:02.389Z,92.50
2019-06-08T02:43:46.578Z,92.20
2019-06-08T02:49:04.605Z,92.30
2019-06-08T02:54:44.680Z,92.40
2019-06-08T02:59:55.905Z,92.30
2019-06-08T03:05:38.159Z,91.80
2019-06-08T03:10:46.360Z,92.60
2019-06-08T03:16:31.264Z,92.40
2019-06-08T03:21:47.665Z,92.30
2019-06-08T03:27:29.187Z,92.20
2019-06-08T03:32:50.857Z,92.40
2019-06-08T03:38:28.797Z,92.30
2019-06-08T03:43:37.595Z,92.20
2019-06-08T03:49:40.241Z,91.90
2019-06-08T03:54:32.916Z,92.00
2019-06-08T03:59:43.218Z,92.10
2019-06-08T04:04:51.647Z,92.10
2019-06-08T04:10:39.868Z,91.40
2019-06-08T04:15:52.817Z,90.80
2019-06-08T04:21:35.763Z,90.80
2019-06-08T04:26:45.006Z,90.70
2019-06-08T04:32:28.911Z,90.30
2019-06-08T04:37:38.322Z,89.00
2019-06-08T04:43:22.137Z,88.80
2019-06-08T04:48:32.136Z,89.30
2019-06-08T04:53:40.941Z,89.30
2019-06-08T04:58:51.502Z,89.70
2019-06-08T05:04:38.811Z,88.50
2019-06-08T05:09:49.453Z,87.40
2019-06-08T05:15:35.717Z,86.00
2019-06-08T05:20:45.021Z,85.00
2019-06-08T05:26:26.177Z,83.70
2019-06-08T05:31:32.160Z,82.60
2019-06-08T05:36:41.390Z,81.60
2019-06-08T05:41:51.445Z,79.70
2019-06-08T05:47:37.874Z,77.90
2019-06-08T05:52:44.251Z,78.60
2019-06-08T05:57:50.777Z,79.10
2019-06-08T06:02:59.202Z,79.20
2019-06-08T06:08:43.095Z,78.80
2019-06-08T06:13:52.492Z,78.40
2019-06-08T06:19:34.494Z,79.40
2019-06-08T06:24:41.729Z,79.40
2019-06-08T06:30:25.109Z,78.30
2019-06-08T06:35:34.073Z,77.80
2019-06-08T06:41:23.324Z,78.80
2019-06-08T06:47:07.470Z,79.00
2019-06-08T06:52:17.177Z,77.60
2019-06-08T06:57:25.309Z,75.80
2019-06-08T07:02:33.765Z,73.90
2019-06-08T07:07:44.076Z,74.60
2019-06-08T07:12:58.787Z,75.10
2019-06-08T07:18:48.190Z,75.30
2019-06-08T07:24:32.333Z,74.40
2019-06-08T07:29:37.307Z,74.00
2019-06-08T07:35:28.847Z,72.30
2019-06-08T07:40:34.651Z,70.60
2019-06-08T07:45:44.812Z,71.70
2019-06-08T07:51:11.480Z,71.30
2019-06-08T07:56:16.312Z,71.50
2019-06-08T08:01:58.545Z,70.10
2019-06-08T08:07:04.455Z,68.70
2019-06-08T08:12:46.975Z,71.50
2019-06-08T08:17:55.491Z,72.00
2019-06-08T08:23:38.276Z,71.80
2019-06-08T08:28:50.023Z,71.70
2019-06-08T08:34:38.166Z,69.70
2019-06-08T08:40:19.489Z,68.60
2019-06-08T08:45:24.368Z,69.70
2019-06-08T08:50:29.435Z,70.30
2019-06-08T08:55:34.406Z,71.30
2019-06-08T09:00:41.153Z,68.40
2019-06-08T09:06:28.174Z,64.80
2019-06-08T09:11:33.313Z,66.30
2019-06-08T09:17:18.314Z,67.40
2019-06-08T09:22:28.139Z,64.70
2019-06-08T09:28:15.145Z,63.80
2019-06-08T09:33:21.401Z,63.70
2019-06-08T09:39:05.327Z,63.20
2019-06-08T09:44:11.408Z,61.00
2019-06-08T09:49:18.793Z,59.20
2019-06-08T09:54:24.318Z,57.50
2019-06-08T09:59:29.337Z,56.20
2019-06-08T10:04:38.696Z,54.30
2019-06-08T10:09:47.424Z,53.20
2019-06-08T10:14:52.240Z,50.40
2019-06-08T10:20:38.427Z,49.40
2019-06-08T10:25:48.214Z,49.80
2019-06-08T10:31:38.893Z,49.30
2019-06-08T10:36:39.794Z,49.30
2019-06-08T10:42:21.062Z,45.20
2019-06-08T10:47:29.518Z,41.60
2019-06-08T10:53:16.739Z,39.50
2019-06-08T10:58:28.276Z,39.50
2019-06-08T11:03:32.506Z,40.00
2019-06-08T11:09:20.241Z,40.90
2019-06-08T11:14:28.868Z,40.30
2019-06-08T11:20:15.183Z,38.60
2019-06-08T11:25:20.204Z,40.80
2019-06-08T11:31:02.100Z,40.70
2019-06-08T11:36:12.159Z,41.00
2019-06-08T11:41:55.660Z,42.10
2019-06-08T11:47:00.558Z,43.30
2019-06-08T11:52:06.739Z,43.50
2019-06-08T11:57:12.992Z,43.10
2019-06-08T12:02:21.608Z,41.00
2019-06-08T12:08:04.316Z,42.00
2019-06-08T12:13:14.436Z,42.00
2019-06-08T12:18:58.428Z,43.30
2019-06-08T12:24:06.306Z,44.40
2019-06-08T12:29:54.998Z,46.10
2019-06-08T12:35:40.325Z,46.80
2019-06-08T12:40:45.334Z,47.80
2019-06-08T12:46:27.980Z,48.30
2019-06-08T12:51:37.532Z,49.10
2019-06-08T12:57:14.924Z,50.20
2019-06-08T13:02:28.011Z,50.00
2019-06-08T13:08:21.500Z,50.40
2019-06-08T13:14:08.331Z,49.50
2019-06-08T13:19:20.067Z,48.50
2019-06-08T13:25:15.680Z,47.20
2019-06-08T13:30:15.431Z,46.30
2019-06-08T13:35:54.952Z,46.30
2019-06-08T13:41:01.964Z,44.60
2019-06-08T13:46:49.945Z,42.50
2019-06-08T13:51:55.330Z,41.90
2019-06-08T13:57:08.636Z,40.50
2019-06-08T14:02:50.148Z,41.40
2019-06-08T14:08:04.783Z,43.10
2019-06-08T14:13:09.856Z,42.40
2019-06-08T14:24:26.177Z,28.30
2019-06-08T14:30:08.596Z,25.60
2019-06-08T14:35:20.567Z,25.30
2019-06-08T14:41:07.664Z,25.30
2019-06-08T14:46:24.377Z,24.20
2019-06-08T14:51:32.588Z,21.00
2019-06-08T14:57:19.266Z,21.00
2019-06-08T15:02:34.204Z,22.30
2019-06-08T15:07:50.999Z,21.80
2019-06-08T15:13:40.513Z,19.80
2019-06-08T15:18:51.466Z,20.10
2019-06-08T15:24:37.633Z,20.90
2019-06-08T15:29:47.767Z,21.20
2019-06-08T15:35:32.875Z,19.80
2019-06-08T15:40:42.899Z,19.60
2019-06-08T15:45:55.186Z,19.00
2019-06-08T15:51:04.665Z,18.80
2019-06-08T15:56:09.878Z,18.50
2019-06-08T16:01:17.272Z,18.40
2019-06-08T16:06:31.730Z,19.00
2019-06-08T16:11:42.520Z,18.30
2019-06-08T16:17:23.077Z,18.70
2019-06-08T16:22:29.924Z,18.60
2019-06-08T16:27:35.986Z,17.50
2019-06-08T16:32:42.217Z,17.80
2019-06-08T16:38:30.309Z,19.50
2019-06-08T16:43:35.374Z,19.20
2019-06-08T16:48:45.122Z,19.20
2019-06-08T16:54:35.096Z,20.10
2019-06-08T16:59:44.475Z,20.10
2019-06-08T17:04:49.571Z,19.60
2019-06-08T17:10:32.602Z,18.30
2019-06-08T17:16:08.275Z,18.80
2019-06-08T17:21:15.291Z,19.60
2019-06-08T17:27:02.016Z,19.90
2019-06-08T17:32:07.083Z,23.10
2019-06-08T17:37:12.158Z,26.50
2019-06-08T17:42:17.079Z,28.10
2019-06-08T17:48:02.247Z,29.20
2019-06-08T17:53:07.244Z,29.40
2019-06-08T17:58:12.275Z,29.80
2019-06-08T18:03:17.436Z,30.90
2019-06-08T18:08:38.821Z,30.50
2019-06-08T18:14:22.726Z,31.60
2019-06-08T18:19:30.804Z,32.20
2019-06-08T18:25:17.998Z,33.00
2019-06-08T18:31:03.980Z,33.70
2019-06-08T18:36:09.318Z,32.70
2019-06-08T18:41:17.679Z,33.40
2019-06-08T18:46:27.215Z,34.20
2019-06-08T18:51:33.600Z,34.90
2019-06-08T18:56:42.255Z,35.30
2019-06-08T19:01:49.963Z,36.80
2019-06-08T19:07:01.400Z,36.60
2019-06-08T19:12:53.440Z,36.40
2019-06-08T19:17:58.682Z,37.10
2019-06-08T19:23:43.364Z,38.70
2019-06-08T19:28:54.060Z,42.00
2019-06-08T19:34:07.701Z,44.20
2019-06-08T19:39:17.952Z,46.10
2019-06-08T19:45:05.238Z,48.00
2019-06-08T19:50:09.364Z,50.20
2019-06-08T19:55:54.084Z,52.10
2019-06-08T20:01:01.351Z,53.50
2019-06-08T20:06:08.492Z,54.80
2019-06-08T20:11:17.288Z,54.60
2019-06-08T20:16:23.935Z,56.60
2019-06-08T20:21:30.933Z,56.20
2019-06-08T20:27:17.235Z,54.30
2019-06-08T20:32:23.875Z,57.20
2019-06-08T20:37:29.809Z,59.30
2019-06-08T20:42:37.850Z,60.40
2019-06-08T20:48:19.967Z,60.90
2019-06-08T20:53:24.999Z,61.80
2019-06-08T20:59:08.170Z,63.00
2019-06-08T21:04:14.747Z,63.90
2019-06-08T21:09:19.679Z,64.20
2019-06-08T21:14:30.709Z,65.10
2019-06-08T21:20:19.989Z,65.50
2019-06-08T21:25:28.079Z,65.10
2019-06-08T21:31:17.759Z,66.40
2019-06-08T21:36:29.134Z,66.90
2019-06-08T21:41:38.048Z,68.50
2019-06-08T21:46:48.704Z,67.90
2019-06-08T21:52:31.577Z,68.30
2019-06-08T21:57:40.450Z,68.50
2019-06-08T22:02:47.969Z,70.00
2019-06-08T22:07:54.377Z,70.20
2019-06-08T22:13:39.033Z,71.90
2019-06-08T22:18:44.747Z,73.40
2019-06-08T22:24:27.724Z,74.50
2019-06-08T22:29:38.195Z,74.20
2019-06-08T22:34:51.492Z,72.50
2019-06-08T22:40:04.004Z,72.70
2019-06-08T22:45:48.242Z,73.40
2019-06-08T22:50:57.298Z,74.80
2019-06-08T22:56:37.905Z,75.60
2019-06-08T23:01:43.129Z,76.50
2019-06-08T23:06:48.254Z,76.50
2019-06-08T23:11:55.121Z,77.20
2019-06-08T23:17:38.613Z,78.20
2019-06-08T23:22:43.390Z,77.90
2019-06-08T23:28:24.953Z,78.60
2019-06-08T23:33:38.741Z,79.60
2019-06-08T23:39:23.801Z,79.90
2019-06-08T23:44:29.182Z,79.90
2019-06-08T23:50:11.705Z,80.80
2019-06-08T23:55:18.241Z,81.50
